sensor_id;sensor_type;location;lat;lon;timestamp;temperature;humidity
41168;DHT22;26906;45.658;9.272;2023-02-18T08:19:54;10.30;99.90
41168;DHT22;26906;45.658;9.272;2023-02-18T08:22:20;10.50;99.90
41168;DHT22;26906;45.658;9.272;2023-02-18T08:24:46;10.60;99.90
41168;DHT22;26906;45.658;9.272;2023-02-18T08:27:11;10.70;99.90
41168;DHT22;26906;45.658;9.272;2023-02-18T08:29:39;10.80;99.90
41168;DHT22;26906;45.658;9.272;2023-02-18T08:32:04;11.00;99.90
41168;DHT22;26906;45.658;9.272;2023-02-18T08:34:30;11.10;99.90
41168;DHT22;26906;45.658;9.272;2023-02-18T08:36:58;11.20;99.90
41168;DHT22;26906;45.658;9.272;2023-02-18T08:39:23;11.20;99.90
41168;DHT22;26906;45.658;9.272;2023-02-18T08:41:49;11.20;99.90
41168;DHT22;26906;45.658;9.272;2023-02-18T08:44:14;11.40;99.90
41168;DHT22;26906;45.658;9.272;2023-02-18T08:46:42;11.60;99.90
41168;DHT22;26906;45.658;9.272;2023-02-18T08:49:08;11.70;99.90
41168;DHT22;26906;45.658;9.272;2023-02-18T08:51:34;11.80;99.90
41168;DHT22;26906;45.658;9.272;2023-02-18T08:54:01;11.90;99.90
41168;DHT22;26906;45.658;9.272;2023-02-18T08:56:27;12.00;99.90
41168;DHT22;26906;45.658;9.272;2023-02-18T08:58:56;12.10;99.90
41168;DHT22;26906;45.658;9.272;2023-02-18T09:01:23;12.20;99.90
41168;DHT22;26906;45.658;9.272;2023-02-18T09:03:49;12.30;99.90
41168;DHT22;26906;45.658;9.272;2023-02-18T09:06:16;12.40;99.90
41168;DHT22;26906;45.658;9.272;2023-02-18T09:08:42;12.50;99.90
41168;DHT22;26906;45.658;9.272;2023-02-18T09:11:09;12.70;99.90
41168;DHT22;26906;45.658;9.272;2023-02-18T09:13:35;12.80;99.90
41168;DHT22;26906;45.658;9.272;2023-02-18T09:16:05;13.00;99.90
41168;DHT22;26906;45.658;9.272;2023-02-18T09:18:34;13.00;99.90
41168;DHT22;26906;45.658;9.272;2023-02-18T09:21:00;13.10;99.90
41168;DHT22;26906;45.658;9.272;2023-02-18T09:23:28;13.20;99.90
41168;DHT22;26906;45.658;9.272;2023-02-18T09:25:54;13.40;99.90
41168;DHT22;26906;45.658;9.272;2023-02-18T09:28:20;13.50;99.90
41168;DHT22;26906;45.658;9.272;2023-02-18T09:30:46;13.60;99.90
41168;DHT22;26906;45.658;9.272;2023-02-18T09:33:12;13.70;99.90
41168;DHT22;26906;45.658;9.272;2023-02-18T09:35:43;13.80;99.90
41168;DHT22;26906;45.658;9.272;2023-02-18T09:38:10;13.80;99.90
41168;DHT22;26906;45.658;9.272;2023-02-18T09:40:41;13.90;99.90
41168;DHT22;26906;45.658;9.272;2023-02-18T09:43:26;14.10;99.90
41168;DHT22;26906;45.658;9.272;2023-02-18T09:45:53;14.30;99.90
41168;DHT22;26906;45.658;9.272;2023-02-18T09:48:27;14.40;99.90
41168;DHT22;26906;45.658;9.272;2023-02-18T09:50:54;14.50;99.90
41168;DHT22;26906;45.658;9.272;2023-02-18T09:53:22;14.70;99.90
41168;DHT22;26906;45.658;9.272;2023-02-18T09:55:48;14.70;99.90
41168;DHT22;26906;45.658;9.272;2023-02-18T09:58:20;14.70;99.90
41168;DHT22;26906;45.658;9.272;2023-02-18T10:00:54;14.80;99.90
41168;DHT22;26906;45.658;9.272;2023-02-18T10:03:24;14.80;99.90
41168;DHT22;26906;45.658;9.272;2023-02-18T10:08:25;15.00;99.90
41168;DHT22;26906;45.658;9.272;2023-02-18T10:10:53;15.20;99.90
41168;DHT22;26906;45.658;9.272;2023-02-18T10:13:29;15.40;99.90
41168;DHT22;26906;45.658;9.272;2023-02-18T10:15:54;15.40;99.90
41168;DHT22;26906;45.658;9.272;2023-02-18T10:18:30;15.60;99.90
41168;DHT22;26906;45.658;9.272;2023-02-18T10:21:08;15.60;99.90
41168;DHT22;26906;45.658;9.272;2023-02-18T10:23:59;15.60;99.90
41168;DHT22;26906;45.658;9.272;2023-02-18T10:26:26;15.60;99.90
41168;DHT22;26906;45.658;9.272;2023-02-18T10:28:53;15.70;99.90
41168;DHT22;26906;45.658;9.272;2023-02-18T10:31:33;15.90;99.90
41168;DHT22;26906;45.658;9.272;2023-02-18T10:34:17;16.10;99.90
41168;DHT22;26906;45.658;9.272;2023-02-18T10:36:45;16.20;99.90
41168;DHT22;26906;45.658;9.272;2023-02-18T10:42:54;16.10;99.90
41168;DHT22;26906;45.658;9.272;2023-02-18T10:50:24;16.50;99.90
41168;DHT22;26906;45.658;9.272;2023-02-18T10:52:52;16.80;99.90
41168;DHT22;26906;45.658;9.272;2023-02-18T10:55:35;17.00;99.90
41168;DHT22;26906;45.658;9.272;2023-02-18T10:58:01;16.80;99.90
41168;DHT22;26906;45.658;9.272;2023-02-18T11:00:34;16.90;99.90
41168;DHT22;26906;45.658;9.272;2023-02-18T11:05:39;17.00;99.90
41168;DHT22;26906;45.658;9.272;2023-02-18T11:08:09;17.10;99.90
41168;DHT22;26906;45.658;9.272;2023-02-18T11:10:39;17.20;99.90
41168;DHT22;26906;45.658;9.272;2023-02-18T11:13:08;17.20;99.90
41168;DHT22;26906;45.658;9.272;2023-02-18T11:15:35;17.20;99.90
41168;DHT22;26906;45.658;9.272;2023-02-18T11:21:01;17.50;99.90
41168;DHT22;26906;45.658;9.272;2023-02-18T11:23:27;17.70;99.90
41168;DHT22;26906;45.658;9.272;2023-02-18T11:26:06;18.00;99.90
41168;DHT22;26906;45.658;9.272;2023-02-18T11:28:48;18.20;99.90
41168;DHT22;26906;45.658;9.272;2023-02-18T11:31:23;18.10;99.90
41168;DHT22;26906;45.658;9.272;2023-02-18T11:33:53;18.20;99.90
41168;DHT22;26906;45.658;9.272;2023-02-18T11:36:34;18.10;99.90
41168;DHT22;26906;45.658;9.272;2023-02-18T11:39:12;18.30;99.90
41168;DHT22;26906;45.658;9.272;2023-02-18T11:41:41;18.40;99.90
41168;DHT22;26906;45.658;9.272;2023-02-18T11:44:28;18.30;99.90
41168;DHT22;26906;45.658;9.272;2023-02-18T11:49:27;18.10;99.90
41168;DHT22;26906;45.658;9.272;2023-02-18T11:54:39;17.90;99.90
41168;DHT22;26906;45.658;9.272;2023-02-18T11:57:09;18.00;99.90
41168;DHT22;26906;45.658;9.272;2023-02-18T11:59:38;18.10;99.90
41168;DHT22;26906;45.658;9.272;2023-02-18T12:04:50;18.20;99.90
41168;DHT22;26906;45.658;9.272;2023-02-18T12:07:29;18.20;99.90
41168;DHT22;26906;45.658;9.272;2023-02-18T12:10:04;18.20;99.90
41168;DHT22;26906;45.658;9.272;2023-02-18T12:12:46;17.90;99.90
41168;DHT22;26906;45.658;9.272;2023-02-18T12:15:23;17.80;99.90
41168;DHT22;26906;45.658;9.272;2023-02-18T12:18:07;17.90;99.90
41168;DHT22;26906;45.658;9.272;2023-02-18T12:26:25;18.20;99.90
41168;DHT22;26906;45.658;9.272;2023-02-18T12:46:39;18.50;99.90
41168;DHT22;26906;45.658;9.272;2023-02-18T12:54:41;18.80;99.90
41168;DHT22;26906;45.658;9.272;2023-02-18T13:00:22;18.80;99.90
41168;DHT22;26906;45.658;9.272;2023-02-18T13:08:54;19.00;99.90
41168;DHT22;26906;45.658;9.272;2023-02-18T13:16:27;19.20;99.90
41168;DHT22;26906;45.658;9.272;2023-02-18T13:19:22;19.30;99.90
41168;DHT22;26906;45.658;9.272;2023-02-18T13:21:52;19.40;99.90
41168;DHT22;26906;45.658;9.272;2023-02-18T13:24:30;19.40;99.90
41168;DHT22;26906;45.658;9.272;2023-02-18T13:30:00;19.50;99.90
41168;DHT22;26906;45.658;9.272;2023-02-18T13:32:38;19.60;99.90
41168;DHT22;26906;45.658;9.272;2023-02-18T13:40:22;19.30;99.90
41168;DHT22;26906;45.658;9.272;2023-02-18T13:42:52;19.20;99.90
41168;DHT22;26906;45.658;9.272;2023-02-18T13:45:24;19.20;99.90
41168;DHT22;26906;45.658;9.272;2023-02-18T13:47:51;19.20;99.90
41168;DHT22;26906;45.658;9.272;2023-02-18T13:50:31;19.10;99.90
41168;DHT22;26906;45.658;9.272;2023-02-18T13:58:04;19.10;99.90
41168;DHT22;26906;45.658;9.272;2023-02-18T14:00:38;19.00;99.90
41168;DHT22;26906;45.658;9.272;2023-02-18T14:03:30;19.10;99.90
41168;DHT22;26906;45.658;9.272;2023-02-18T14:05:58;19.20;99.90
41168;DHT22;26906;45.658;9.272;2023-02-18T14:08:35;19.30;99.90
41168;DHT22;26906;45.658;9.272;2023-02-18T14:11:28;19.30;99.90
41168;DHT22;26906;45.658;9.272;2023-02-18T14:16:25;19.20;99.90
41168;DHT22;26906;45.658;9.272;2023-02-18T14:18:59;19.20;99.90
41168;DHT22;26906;45.658;9.272;2023-02-18T14:24:05;19.00;99.90
41168;DHT22;26906;45.658;9.272;2023-02-18T14:26:48;19.10;99.90
41168;DHT22;26906;45.658;9.272;2023-02-18T14:29:16;19.20;99.90
41168;DHT22;26906;45.658;9.272;2023-02-18T14:31:51;19.10;99.90
41168;DHT22;26906;45.658;9.272;2023-02-18T14:39:37;19.20;99.90
41168;DHT22;26906;45.658;9.272;2023-02-18T14:42:19;19.10;99.90
41168;DHT22;26906;45.658;9.272;2023-02-18T14:44:52;19.10;99.90
41168;DHT22;26906;45.658;9.272;2023-02-18T14:49:56;19.10;99.90
41168;DHT22;26906;45.658;9.272;2023-02-18T14:52:46;19.10;99.90
41168;DHT22;26906;45.658;9.272;2023-02-18T14:55:32;19.10;99.90
41168;DHT22;26906;45.658;9.272;2023-02-18T15:00:32;19.00;99.90
41168;DHT22;26906;45.658;9.272;2023-02-18T15:02:59;19.00;99.90
41168;DHT22;26906;45.658;9.272;2023-02-18T15:05:28;19.00;99.90
41168;DHT22;26906;45.658;9.272;2023-02-18T15:10:33;19.00;99.90
41168;DHT22;26906;45.658;9.272;2023-02-18T15:13:04;19.00;99.90
41168;DHT22;26906;45.658;9.272;2023-02-18T15:15:33;18.80;99.90
41168;DHT22;26906;45.658;9.272;2023-02-18T15:18:01;18.60;99.90
41168;DHT22;26906;45.658;9.272;2023-02-18T15:20:31;18.60;99.90
41168;DHT22;26906;45.658;9.272;2023-02-18T15:22:58;18.50;99.90
41168;DHT22;26906;45.658;9.272;2023-02-18T15:25:25;18.50;99.90
41168;DHT22;26906;45.658;9.272;2023-02-18T15:27:51;18.40;99.90
41168;DHT22;26906;45.658;9.272;2023-02-18T15:30:23;18.50;99.90
41168;DHT22;26906;45.658;9.272;2023-02-18T15:32:51;18.40;99.90
41168;DHT22;26906;45.658;9.272;2023-02-18T15:35:20;18.50;99.90
41168;DHT22;26906;45.658;9.272;2023-02-18T15:37:51;18.60;99.90
41168;DHT22;26906;45.658;9.272;2023-02-18T15:40:19;18.70;99.90
41168;DHT22;26906;45.658;9.272;2023-02-18T15:42:49;18.60;99.90
41168;DHT22;26906;45.658;9.272;2023-02-18T15:45:21;18.70;99.90
41168;DHT22;26906;45.658;9.272;2023-02-18T15:47:50;18.70;99.90
41168;DHT22;26906;45.658;9.272;2023-02-18T15:50:24;18.70;99.90
41168;DHT22;26906;45.658;9.272;2023-02-18T15:52:53;18.60;99.90
41168;DHT22;26906;45.658;9.272;2023-02-18T15:57:52;18.50;99.90
41168;DHT22;26906;45.658;9.272;2023-02-18T16:00:24;18.40;99.90
41168;DHT22;26906;45.658;9.272;2023-02-18T16:03:03;18.40;99.90
41168;DHT22;26906;45.658;9.272;2023-02-18T16:05:37;18.50;99.90
41168;DHT22;26906;45.658;9.272;2023-02-18T16:08:33;18.30;99.90
41168;DHT22;26906;45.658;9.272;2023-02-18T16:11:05;18.20;99.90
41168;DHT22;26906;45.658;9.272;2023-02-18T16:13:33;18.20;99.90
41168;DHT22;26906;45.658;9.272;2023-02-18T16:16:00;18.10;99.90
41168;DHT22;26906;45.658;9.272;2023-02-18T16:18:40;17.90;99.90
41168;DHT22;26906;45.658;9.272;2023-02-18T16:23:54;17.80;99.90
41168;DHT22;26906;45.658;9.272;2023-02-18T16:32:00;17.50;99.90
41168;DHT22;26906;45.658;9.272;2023-02-18T16:34:26;17.40;99.90
41168;DHT22;26906;45.658;9.272;2023-02-18T16:36:52;17.30;99.90
41168;DHT22;26906;45.658;9.272;2023-02-18T16:39:37;17.20;99.90
41168;DHT22;26906;45.658;9.272;2023-02-18T16:42:10;17.00;99.90
41168;DHT22;26906;45.658;9.272;2023-02-18T16:44:36;17.00;99.90
41168;DHT22;26906;45.658;9.272;2023-02-18T16:47:02;16.90;99.90
41168;DHT22;26906;45.658;9.272;2023-02-18T16:49:28;16.70;99.90
41168;DHT22;26906;45.658;9.272;2023-02-18T16:51:55;16.70;99.90
41168;DHT22;26906;45.658;9.272;2023-02-18T16:54:20;16.60;99.90
41168;DHT22;26906;45.658;9.272;2023-02-18T16:56:47;16.50;99.90
41168;DHT22;26906;45.658;9.272;2023-02-18T16:59:13;16.40;99.90
41168;DHT22;26906;45.658;9.272;2023-02-18T17:01:41;16.30;99.90
41168;DHT22;26906;45.658;9.272;2023-02-18T17:04:13;16.30;99.90
41168;DHT22;26906;45.658;9.272;2023-02-18T17:06:39;16.20;99.90
41168;DHT22;26906;45.658;9.272;2023-02-18T17:09:18;16.10;99.90
41168;DHT22;26906;45.658;9.272;2023-02-18T17:11:47;16.00;99.90
41168;DHT22;26906;45.658;9.272;2023-02-18T17:14:16;16.00;99.90
41168;DHT22;26906;45.658;9.272;2023-02-18T17:16:51;16.00;99.90
41168;DHT22;26906;45.658;9.272;2023-02-18T17:19:17;15.90;99.90
41168;DHT22;26906;45.658;9.272;2023-02-18T17:21:43;15.80;99.90
41168;DHT22;26906;45.658;9.272;2023-02-18T17:24:13;15.70;99.90
41168;DHT22;26906;45.658;9.272;2023-02-18T17:26:39;15.70;99.90
41168;DHT22;26906;45.658;9.272;2023-02-18T17:29:05;15.60;99.90
41168;DHT22;26906;45.658;9.272;2023-02-18T17:31:38;15.70;99.90
41168;DHT22;26906;45.658;9.272;2023-02-18T17:34:08;15.50;99.90
41168;DHT22;26906;45.658;9.272;2023-02-18T17:36:34;15.50;99.90
41168;DHT22;26906;45.658;9.272;2023-02-18T17:39:00;15.50;99.90
41168;DHT22;26906;45.658;9.272;2023-02-18T17:41:26;15.40;99.90
41168;DHT22;26906;45.658;9.272;2023-02-18T17:43:52;15.40;99.90
41168;DHT22;26906;45.658;9.272;2023-02-18T17:46:18;15.40;99.90
41168;DHT22;26906;45.658;9.272;2023-02-18T17:48:45;15.30;99.90
41168;DHT22;26906;45.658;9.272;2023-02-18T17:51:26;15.20;99.90
41168;DHT22;26906;45.658;9.272;2023-02-18T17:53:52;15.20;99.90
41168;DHT22;26906;45.658;9.272;2023-02-18T17:56:18;15.20;99.90
41168;DHT22;26906;45.658;9.272;2023-02-18T17:58:43;15.10;99.90
41168;DHT22;26906;45.658;9.272;2023-02-18T18:01:10;15.00;99.90
41168;DHT22;26906;45.658;9.272;2023-02-18T18:03:36;14.90;99.90
41168;DHT22;26906;45.658;9.272;2023-02-18T18:06:02;14.80;99.90
41168;DHT22;26906;45.658;9.272;2023-02-18T18:08:30;14.80;99.90
41168;DHT22;26906;45.658;9.272;2023-02-18T18:11:00;14.80;99.90
41168;DHT22;26906;45.658;9.272;2023-02-18T18:13:28;14.70;99.90
41168;DHT22;26906;45.658;9.272;2023-02-18T18:15:57;14.70;99.90
41168;DHT22;26906;45.658;9.272;2023-02-18T18:18:23;14.60;99.90
41168;DHT22;26906;45.658;9.272;2023-02-18T18:20:51;14.50;99.90
41168;DHT22;26906;45.658;9.272;2023-02-18T18:23:19;14.50;99.90
41168;DHT22;26906;45.658;9.272;2023-02-18T18:25:52;14.50;99.90
41168;DHT22;26906;45.658;9.272;2023-02-18T18:28:20;14.40;99.90
41168;DHT22;26906;45.658;9.272;2023-02-18T18:30:48;14.40;99.90
41168;DHT22;26906;45.658;9.272;2023-02-18T18:33:26;14.30;99.90
41168;DHT22;26906;45.658;9.272;2023-02-18T18:35:54;14.20;99.90
41168;DHT22;26906;45.658;9.272;2023-02-18T18:38:21;14.10;99.90
41168;DHT22;26906;45.658;9.272;2023-02-18T18:40:48;14.10;99.90
41168;DHT22;26906;45.658;9.272;2023-02-18T18:45:45;14.00;99.90
41168;DHT22;26906;45.658;9.272;2023-02-18T18:48:11;14.00;99.90
41168;DHT22;26906;45.658;9.272;2023-02-18T18:50:38;13.90;99.90
41168;DHT22;26906;45.658;9.272;2023-02-18T18:55:45;13.80;99.90
41168;DHT22;26906;45.658;9.272;2023-02-18T18:58:10;13.80;99.90
41168;DHT22;26906;45.658;9.272;2023-02-18T19:00:39;13.80;99.90
41168;DHT22;26906;45.658;9.272;2023-02-18T19:03:06;13.80;99.90
41168;DHT22;26906;45.658;9.272;2023-02-18T19:05:34;13.80;99.90
41168;DHT22;26906;45.658;9.272;2023-02-18T19:08:03;13.70;99.90
41168;DHT22;26906;45.658;9.272;2023-02-18T19:10:37;13.70;99.90
41168;DHT22;26906;45.658;9.272;2023-02-18T19:13:15;13.70;99.90
41168;DHT22;26906;45.658;9.272;2023-02-18T19:15:42;13.70;99.90
41168;DHT22;26906;45.658;9.272;2023-02-18T19:18:12;13.60;99.90
41168;DHT22;26906;45.658;9.272;2023-02-18T19:20:39;13.60;99.90
41168;DHT22;26906;45.658;9.272;2023-02-18T19:23:04;13.50;99.90
41168;DHT22;26906;45.658;9.272;2023-02-18T19:25:31;13.50;99.90
41168;DHT22;26906;45.658;9.272;2023-02-18T19:27:59;13.40;99.90
41168;DHT22;26906;45.658;9.272;2023-02-18T19:30:29;13.40;99.90
41168;DHT22;26906;45.658;9.272;2023-02-18T19:32:56;13.40;99.90
41168;DHT22;26906;45.658;9.272;2023-02-18T19:35:26;13.40;99.90
41168;DHT22;26906;45.658;9.272;2023-02-18T19:37:58;13.40;99.90
41168;DHT22;26906;45.658;9.272;2023-02-18T19:40:27;13.30;99.90
41168;DHT22;26906;45.658;9.272;2023-02-18T19:42:53;13.30;99.90
41168;DHT22;26906;45.658;9.272;2023-02-18T19:45:20;13.30;99.90
41168;DHT22;26906;45.658;9.272;2023-02-18T19:47:47;13.20;99.90
41168;DHT22;26906;45.658;9.272;2023-02-18T19:50:18;13.10;99.90
41168;DHT22;26906;45.658;9.272;2023-02-18T19:52:43;13.10;99.90
41168;DHT22;26906;45.658;9.272;2023-02-18T19:55:09;13.10;99.90
41168;DHT22;26906;45.658;9.272;2023-02-18T19:57:36;13.10;99.90
41168;DHT22;26906;45.658;9.272;2023-02-18T20:00:06;13.10;99.90
41168;DHT22;26906;45.658;9.272;2023-02-18T20:02:38;13.10;99.90
41168;DHT22;26906;45.658;9.272;2023-02-18T20:05:05;13.00;99.90
41168;DHT22;26906;45.658;9.272;2023-02-18T20:07:31;13.00;99.90
41168;DHT22;26906;45.658;9.272;2023-02-18T20:09:57;13.00;99.90
41168;DHT22;26906;45.658;9.272;2023-02-18T20:12:23;13.00;99.90
41168;DHT22;26906;45.658;9.272;2023-02-18T20:14:49;12.90;99.90
41168;DHT22;26906;45.658;9.272;2023-02-18T20:17:17;12.90;99.90
41168;DHT22;26906;45.658;9.272;2023-02-18T20:19:43;12.80;99.90
41168;DHT22;26906;45.658;9.272;2023-02-18T20:22:09;12.80;99.90
41168;DHT22;26906;45.658;9.272;2023-02-18T20:24:36;12.70;99.90
41168;DHT22;26906;45.658;9.272;2023-02-18T20:27:02;12.60;99.90
41168;DHT22;26906;45.658;9.272;2023-02-18T20:29:28;12.60;99.90
41168;DHT22;26906;45.658;9.272;2023-02-18T20:31:55;12.60;99.90
41168;DHT22;26906;45.658;9.272;2023-02-18T20:34:21;12.50;99.90
41168;DHT22;26906;45.658;9.272;2023-02-18T20:36:48;12.50;99.90
41168;DHT22;26906;45.658;9.272;2023-02-18T20:39:15;12.50;99.90
41168;DHT22;26906;45.658;9.272;2023-02-18T20:41:42;12.50;99.90
41168;DHT22;26906;45.658;9.272;2023-02-18T20:44:08;12.50;99.90
41168;DHT22;26906;45.658;9.272;2023-02-18T20:46:35;12.40;99.90
41168;DHT22;26906;45.658;9.272;2023-02-18T20:49:03;12.40;99.90
41168;DHT22;26906;45.658;9.272;2023-02-18T20:51:31;12.30;99.90
41168;DHT22;26906;45.658;9.272;2023-02-18T20:53:57;12.40;99.90
41168;DHT22;26906;45.658;9.272;2023-02-18T20:56:24;12.40;99.90
41168;DHT22;26906;45.658;9.272;2023-02-18T20:58:49;12.40;99.90
41168;DHT22;26906;45.658;9.272;2023-02-18T21:01:17;12.30;99.90
41168;DHT22;26906;45.658;9.272;2023-02-18T21:03:45;12.30;99.90
41168;DHT22;26906;45.658;9.272;2023-02-18T21:06:15;12.30;99.90
41168;DHT22;26906;45.658;9.272;2023-02-18T21:08:42;12.30;99.90
41168;DHT22;26906;45.658;9.272;2023-02-18T21:11:20;12.20;99.90
41168;DHT22;26906;45.658;9.272;2023-02-18T21:13:48;12.20;99.90
